Time;durP1;ratioP1;P1;durP2;ratioP2;P2;SDS_P1;SDS_P2;PMS_P1;PMS_P2;Temp;Humidity;BMP_temperature;BMP_pressure;BME280_temperature;BME280_humidity;BME280_pressure;Samples;Min_cycle;Max_cycle;Signal;HPM_P1;HPM_P2
2022/06/26 00:02:02;;;;;;;3.30;3.10;;;20.90;99.90;;;;;;5138329;27;20890;-71
2022/06/26 00:04:30;;;;;;;4.40;4.00;;;20.90;99.90;;;;;;5138086;27;20560;-71
2022/06/26 00:06:59;;;;;;;4.33;4.03;;;21.00;99.90;;;;;;5138276;27;20526;-71
2022/06/26 00:09:26;;;;;;;4.43;4.13;;;21.00;99.90;;;;;;5138336;27;20456;-71
2022/06/26 00:11:53;;;;;;;4.90;4.50;;;21.00;99.90;;;;;;5138022;27;20438;-71
2022/06/26 00:14:20;;;;;;;4.50;4.20;;;20.90;99.90;;;;;;5137814;27;20534;-71
2022/06/26 00:16:47;;;;;;;4.67;4.37;;;21.00;99.90;;;;;;5138128;27;20528;-71
2022/06/26 00:19:14;;;;;;;4.13;3.83;;;21.00;99.90;;;;;;5138100;27;20530;-71
2022/06/26 00:21:43;;;;;;;4.97;3.47;;;21.00;99.90;;;;;;5138009;27;20452;-71
2022/06/26 00:24:10;;;;;;;3.80;3.50;;;20.90;99.90;;;;;;5137704;27;20842;-71
2022/06/26 00:26:36;;;;;;;3.80;3.50;;;20.90;99.90;;;;;;5137749;27;20974;-71
2022/06/26 00:29:03;;;;;;;3.80;3.57;;;20.90;99.90;;;;;;5137767;27;20429;-71
2022/06/26 00:31:30;;;;;;;3.67;3.47;;;20.90;99.90;;;;;;5137906;27;20540;-71
2022/06/26 00:33:57;;;;;;;3.40;3.20;;;20.90;99.90;;;;;;5137350;27;20868;-71
2022/06/26 00:36:24;;;;;;;3.73;3.40;;;21.00;99.90;;;;;;5137757;27;20525;-71
2022/06/26 00:38:52;;;;;;;4.07;3.80;;;21.00;99.90;;;;;;5137505;27;20528;-71
2022/06/26 00:41:19;;;;;;;4.53;4.13;;;21.00;99.90;;;;;;5137692;27;20470;-71
2022/06/26 00:43:46;;;;;;;4.33;3.97;;;20.90;99.90;;;;;;5137330;27;20556;-71
2022/06/26 00:46:13;;;;;;;3.83;3.63;;;20.70;99.90;;;;;;5137577;27;21027;-71
2022/06/26 00:48:40;;;;;;;4.13;3.83;;;20.50;99.90;;;;;;5137442;27;20537;-71
2022/06/26 00:51:08;;;;;;;3.97;3.67;;;20.40;99.90;;;;;;5137519;27;20532;-71
2022/06/26 00:53:35;;;;;;;4.30;4.00;;;20.40;99.90;;;;;;5136958;27;20572;-70
2022/06/26 00:56:03;;;;;;;3.90;3.70;;;20.30;99.90;;;;;;5137462;27;20536;-71
2022/06/26 00:58:30;;;;;;;4.83;3.70;;;20.30;99.90;;;;;;5137389;27;20479;-71
2022/06/26 01:00:57;;;;;;;8.30;3.50;;;20.40;99.90;;;;;;5137239;27;21002;-71
2022/06/26 01:03:24;;;;;;;3.20;3.00;;;20.50;99.90;;;;;;5136809;27;20572;-71
2022/06/26 01:05:51;;;;;;;3.10;2.90;;;20.60;99.90;;;;;;5137011;27;20532;-71
2022/06/26 01:08:18;;;;;;;3.50;3.30;;;20.60;99.90;;;;;;5137248;27;20532;-71
2022/06/26 01:10:48;;;;;;;3.27;3.00;;;20.80;99.90;;;;;;5135731;27;20521;-71
2022/06/26 01:13:17;;;;;;;3.30;3.10;;;20.90;99.90;;;;;;5136620;27;20552;-71
2022/06/26 01:15:44;;;;;;;3.60;3.37;;;21.00;99.90;;;;;;5136921;27;20532;-71
2022/06/26 01:18:12;;;;;;;3.03;2.83;;;21.10;99.90;;;;;;5137063;27;20529;-71
2022/06/26 01:20:39;;;;;;;3.30;3.00;;;21.10;99.90;;;;;;5136992;27;20533;-71
2022/06/26 01:23:08;;;;;;;3.53;3.33;;;21.20;99.90;;;;;;5136381;27;20975;-71
2022/06/26 01:25:43;;;;;;;3.83;3.40;;;21.30;99.90;;;;;;5136910;27;20526;-71
2022/06/26 01:28:10;;;;;;;3.10;2.90;;;21.30;99.90;;;;;;5136808;27;20860;-71
2022/06/26 01:30:37;;;;;;;5.73;3.37;;;21.40;99.90;;;;;;5136958;27;20430;-71
2022/06/26 01:33:05;;;;;;;3.60;3.30;;;21.40;99.90;;;;;;5136565;27;20453;-71
2022/06/26 01:35:32;;;;;;;3.50;3.30;;;21.50;99.90;;;;;;5136612;27;20830;-71
2022/06/26 01:38:10;;;;;;;3.30;3.10;;;21.50;99.90;;;;;;5136675;27;20513;-71
2022/06/26 01:40:37;;;;;;;3.20;3.00;;;21.40;99.90;;;;;;5136369;27;20435;-71
2022/06/26 01:43:04;;;;;;;3.50;3.30;;;21.40;99.90;;;;;;5135947;27;20450;-71
2022/06/26 01:45:31;;;;;;;4.20;3.30;;;21.20;99.90;;;;;;5136391;27;20478;-71
2022/06/26 01:47:58;;;;;;;3.23;3.03;;;21.10;99.90;;;;;;5136406;27;20530;-71
2022/06/26 01:50:25;;;;;;;3.50;3.30;;;21.10;99.90;;;;;;5136377;27;20524;-71
2022/06/26 01:52:52;;;;;;;3.50;3.20;;;21.20;99.90;;;;;;5135879;27;20564;-71
2022/06/26 01:55:20;;;;;;;3.63;3.43;;;21.30;99.90;;;;;;5135927;27;20968;-71
2022/06/26 01:57:47;;;;;;;3.60;3.40;;;21.30;99.90;;;;;;5136271;27;20477;-71
2022/06/26 02:00:15;;;;;;;3.87;3.30;;;21.30;99.90;;;;;;5136153;27;20521;-71
2022/06/26 02:02:42;;;;;;;3.77;3.50;;;21.30;99.90;;;;;;5135773;27;20469;-71
2022/06/26 02:05:09;;;;;;;4.07;3.87;;;21.30;99.90;;;;;;5135868;27;21047;-71
2022/06/26 02:07:36;;;;;;;3.67;3.47;;;21.30;99.90;;;;;;5135951;27;21011;-71
2022/06/26 02:15:33;;;;;;;4.33;4.03;;;21.40;99.90;;;;;;5136089;27;20486;-71
2022/06/26 02:18:00;;;;;;;3.77;3.57;;;21.50;99.90;;;;;;5136112;27;20438;-71
2022/06/26 02:20:27;;;;;;;4.20;3.80;;;21.50;99.90;;;;;;5135987;27;20438;-71
2022/06/26 02:22:54;;;;;;;4.17;3.87;;;21.50;99.90;;;;;;5135187;27;20462;-71
2022/06/26 02:25:21;;;;;;;3.90;3.70;;;21.50;99.90;;;;;;5135849;27;20573;-71
2022/06/26 02:27:49;;;;;;;3.60;3.40;;;21.50;99.90;;;;;;5135554;27;21015;-71
2022/06/26 02:30:16;;;;;;;3.43;3.17;;;21.50;99.90;;;;;;5135181;27;20525;-71
2022/06/26 02:32:43;;;;;;;3.80;3.50;;;21.50;99.90;;;;;;5135105;27;20556;-71
2022/06/26 02:35:10;;;;;;;3.60;3.40;;;21.50;99.90;;;;;;5135470;27;20559;-71
2022/06/26 02:37:38;;;;;;;4.10;3.90;;;21.50;99.90;;;;;;5135345;27;20442;-71
2022/06/26 02:40:06;;;;;;;3.60;3.30;;;21.50;99.90;;;;;;5135315;27;20446;-71
2022/06/26 02:42:33;;;;;;;3.50;3.30;;;21.40;99.90;;;;;;5134902;27;20472;-71
2022/06/26 02:45:01;;;;;;;4.40;3.30;;;21.30;99.90;;;;;;5135290;27;20564;-71
2022/06/26 02:47:28;;;;;;;4.90;3.90;;;21.20;99.90;;;;;;5135239;27;20444;-71
2022/06/26 02:49:55;;;;;;;3.93;3.63;;;21.10;99.90;;;;;;5135175;27;20528;-71
2022/06/26 02:52:22;;;;;;;3.53;3.33;;;21.10;99.90;;;;;;5134656;27;20560;-71
2022/06/26 02:54:49;;;;;;;3.43;3.23;;;21.10;99.90;;;;;;5135017;27;21011;-71
2022/06/26 02:57:16;;;;;;;2.90;2.80;;;21.10;99.90;;;;;;5135068;27;20525;-71
2022/06/26 02:59:42;;;;;;;3.50;3.30;;;21.10;99.90;;;;;;5134812;27;20528;-71
2022/06/26 03:02:11;;;;;;;3.27;3.07;;;21.20;99.90;;;;;;5134613;27;20540;-71
2022/06/26 03:04:38;;;;;;;4.23;3.93;;;21.10;99.90;;;;;;5134568;27;21062;-71
2022/06/26 03:07:05;;;;;;;3.40;3.10;;;21.10;99.90;;;;;;5134823;27;20438;-71
2022/06/26 03:09:32;;;;;;;3.77;3.43;;;21.10;99.90;;;;;;5134692;27;20525;-71
2022/06/26 03:11:59;;;;;;;3.50;3.27;;;21.10;99.90;;;;;;5134721;27;20438;-71
2022/06/26 03:14:26;;;;;;;4.10;3.70;;;21.10;99.90;;;;;;5134205;27;20943;-71
2022/06/26 03:16:53;;;;;;;3.50;3.30;;;21.10;99.90;;;;;;5134517;27;20928;-71
2022/06/26 03:19:21;;;;;;;4.00;3.70;;;21.10;99.90;;;;;;5134447;27;20525;-71
2022/06/26 03:21:48;;;;;;;3.90;3.60;;;21.00;99.90;;;;;;5134652;27;20520;-71
2022/06/26 03:24:15;;;;;;;3.60;3.40;;;20.90;99.90;;;;;;5134290;27;20559;-71
2022/06/26 03:26:42;;;;;;;3.93;3.73;;;20.70;99.90;;;;;;5134527;27;20953;-71
2022/06/26 03:29:11;;;;;;;4.20;4.00;;;20.60;99.90;;;;;;5134527;27;20532;-71
2022/06/26 03:31:39;;;;;;;3.50;3.30;;;20.70;99.90;;;;;;5134561;27;20434;-71
2022/06/26 03:34:06;;;;;;;4.07;3.77;;;20.60;99.90;;;;;;5133457;27;20557;-70
2022/06/26 03:36:34;;;;;;;4.03;3.73;;;20.50;99.90;;;;;;5134525;27;20537;-71
2022/06/26 03:39:02;;;;;;;3.60;3.40;;;20.50;99.90;;;;;;5134581;27;20536;-71
2022/06/26 03:41:28;;;;;;;4.00;3.80;;;20.60;99.90;;;;;;5134352;27;20536;-70
2022/06/26 03:43:55;;;;;;;3.70;3.40;;;20.60;99.90;;;;;;5133934;27;20544;-71
2022/06/26 03:46:23;;;;;;;3.97;3.67;;;20.70;99.90;;;;;;5134209;27;20535;-71
2022/06/26 03:48:49;;;;;;;3.67;3.47;;;20.70;99.90;;;;;;5134225;27;21018;-70
2022/06/26 03:51:16;;;;;;;3.80;3.53;;;20.80;99.90;;;;;;5134368;27;20541;-71
2022/06/26 03:53:45;;;;;;;3.57;3.27;;;20.80;99.90;;;;;;5134009;27;20560;-71
2022/06/26 03:56:12;;;;;;;3.50;3.30;;;20.80;99.90;;;;;;5134277;27;20537;-71
2022/06/26 03:58:39;;;;;;;3.57;3.37;;;20.90;99.90;;;;;;5134165;27;20524;-71
2022/06/26 04:01:05;;;;;;;4.03;3.73;;;20.90;99.90;;;;;;5134660;27;20541;-71
2022/06/26 04:03:32;;;;;;;3.37;3.10;;;20.90;99.90;;;;;;5133939;27;20895;-71
2022/06/26 04:05:59;;;;;;;3.77;3.47;;;20.90;99.90;;;;;;5134179;27;20905;-71
2022/06/26 04:08:26;;;;;;;3.63;3.37;;;20.90;99.90;;;;;;5134293;27;20792;-71
2022/06/26 04:10:54;;;;;;;3.20;3.00;;;20.90;99.90;;;;;;5134182;27;20882;-71
2022/06/26 04:13:21;;;;;;;3.10;2.90;;;20.90;99.90;;;;;;5133911;27;20556;-71
2022/06/26 04:15:48;;;;;;;3.30;3.10;;;20.90;99.90;;;;;;5134293;27;20517;-71
2022/06/26 04:18:15;;;;;;;3.50;3.30;;;20.90;99.90;;;;;;5134165;27;20549;-71
2022/06/26 04:20:43;;;;;;;3.20;3.00;;;20.90;99.90;;;;;;5134187;27;20868;-71
2022/06/26 04:23:12;;;;;;;3.40;3.10;;;21.00;99.90;;;;;;5133611;27;20823;-71
2022/06/26 04:25:40;;;;;;;3.20;3.00;;;20.90;99.90;;;;;;5134050;27;20568;-71
2022/06/26 04:28:09;;;;;;;3.30;3.10;;;20.90;99.90;;;;;;5134019;27;20477;-70
2022/06/26 04:30:37;;;;;;;3.27;3.07;;;20.90;99.90;;;;;;5134124;27;20860;-71
2022/06/26 04:33:04;;;;;;;3.10;2.90;;;20.90;99.90;;;;;;5133538;27;20462;-71
2022/06/26 04:35:31;;;;;;;2.57;2.40;;;21.00;99.90;;;;;;5134014;27;20513;-71
2022/06/26 04:37:57;;;;;;;2.60;2.50;;;21.10;99.90;;;;;;5133996;27;20868;-71
2022/06/26 04:40:24;;;;;;;3.07;2.87;;;21.10;99.90;;;;;;5133758;27;20541;-71
2022/06/26 04:42:52;;;;;;;2.70;2.50;;;21.00;99.90;;;;;;5133728;27;20549;-71
2022/06/26 04:45:20;;;;;;;2.60;2.50;;;21.00;99.90;;;;;;5134958;27;20479;-71
2022/06/26 04:47:47;;;;;;;2.90;2.70;;;21.10;99.90;;;;;;5137687;27;20498;-71
2022/06/26 04:50:14;;;;;;;2.27;2.17;;;21.10;99.90;;;;;;5137631;27;20494;-71
2022/06/26 04:52:44;;;;;;;2.30;2.20;;;21.10;99.90;;;;;;5136916;27;20534;-71
2022/06/26 04:55:11;;;;;;;3.43;2.23;;;21.10;99.90;;;;;;5137511;27;20849;-71
2022/06/26 04:57:38;;;;;;;2.50;2.30;;;21.20;99.90;;;;;;5137392;27;20489;-71
2022/06/26 05:00:08;;;;;;;2.03;1.93;;;21.10;99.90;;;;;;5137367;27;20553;-71
2022/06/26 05:02:37;;;;;;;2.50;2.40;;;21.10;99.90;;;;;;5136954;27;20470;-71
2022/06/26 05:05:05;;;;;;;2.47;2.30;;;21.00;99.90;;;;;;5137138;27;20513;-71
2022/06/26 05:07:32;;;;;;;2.43;2.33;;;21.00;99.90;;;;;;5137309;27;20531;-71
2022/06/26 05:09:59;;;;;;;2.00;1.93;;;21.10;99.90;;;;;;5137180;27;20446;-71
2022/06/26 05:12:26;;;;;;;2.27;2.17;;;21.10;99.90;;;;;;5136913;27;20458;-71
2022/06/26 05:14:53;;;;;;;2.50;2.33;;;21.10;99.90;;;;;;5137019;27;20525;-71
2022/06/26 05:17:20;;;;;;;2.13;2.03;;;21.20;99.90;;;;;;5137066;27;20532;-71
2022/06/26 05:19:48;;;;;;;2.30;2.20;;;21.30;99.90;;;;;;5137067;27;20484;-70
2022/06/26 05:22:15;;;;;;;2.57;2.37;;;21.30;99.90;;;;;;5136435;27;20439;-71
2022/06/26 05:24:42;;;;;;;2.63;2.53;;;21.30;99.90;;;;;;5136687;27;20438;-71
2022/06/26 05:27:09;;;;;;;2.97;2.77;;;21.30;99.90;;;;;;5136752;27;20446;-71
2022/06/26 05:29:36;;;;;;;3.73;3.30;;;21.40;99.90;;;;;;5137130;27;20859;-70
2022/06/26 05:32:04;;;;;;;2.67;2.57;;;21.40;99.90;;;;;;5136617;27;20525;-71
2022/06/26 05:34:31;;;;;;;3.00;2.80;;;21.40;99.90;;;;;;5137367;27;20530;-71
2022/06/26 05:36:59;;;;;;;3.17;2.87;;;21.50;99.90;;;;;;5136727;27;20517;-71
2022/06/26 05:39:26;;;;;;;3.70;3.50;;;21.60;99.90;;;;;;5136586;27;20537;-71
2022/06/26 05:41:53;;;;;;;3.20;3.00;;;21.60;99.90;;;;;;5136651;27;20545;-71
2022/06/26 05:44:19;;;;;;;3.60;3.30;;;21.60;99.90;;;;;;5136326;27;20561;-71
2022/06/26 05:46:46;;;;;;;3.40;3.20;;;21.60;99.90;;;;;;5136386;27;20486;-71
2022/06/26 05:49:13;;;;;;;3.23;3.03;;;21.50;99.90;;;;;;5136497;27;20434;-71
2022/06/26 05:51:40;;;;;;;2.80;2.60;;;21.50;99.90;;;;;;5136373;27;20550;-71
2022/06/26 05:54:08;;;;;;;2.60;2.40;;;21.60;99.90;;;;;;5135928;27;20522;-71
2022/06/26 05:56:35;;;;;;;2.63;2.43;;;21.70;99.90;;;;;;5135511;27;20529;-71
2022/06/26 05:59:02;;;;;;;2.70;2.23;;;21.60;99.90;;;;;;5136036;27;20538;-71
2022/06/26 06:01:29;;;;;;;3.27;2.20;;;21.50;99.90;;;;;;5136140;27;21003;-71
2022/06/26 06:03:56;;;;;;;2.60;2.50;;;21.40;99.90;;;;;;5135936;27;20533;-71
2022/06/26 06:06:22;;;;;;;2.90;2.80;;;21.40;99.90;;;;;;5136024;27;20573;-71
2022/06/26 06:08:49;;;;;;;2.37;2.27;;;21.30;99.90;;;;;;5136055;27;20529;-71
2022/06/26 06:11:17;;;;;;;2.53;2.33;;;21.30;99.90;;;;;;5136079;27;20529;-70
2022/06/26 06:13:44;;;;;;;2.97;2.67;;;21.20;99.90;;;;;;5135387;27;20494;-71
2022/06/26 06:16:11;;;;;;;2.70;2.57;;;21.20;99.90;;;;;;5135626;27;20431;-71
2022/06/26 06:18:38;;;;;;;2.40;2.30;;;21.30;99.90;;;;;;5135859;27;20562;-71
2022/06/26 06:21:05;;;;;;;2.50;2.40;;;21.20;99.90;;;;;;5135804;27;20448;-71
2022/06/26 06:23:32;;;;;;;2.53;2.43;;;21.20;99.90;;;;;;5135384;27;20561;-71
2022/06/26 06:25:59;;;;;;;1.90;1.80;;;21.20;99.90;;;;;;5135593;27;20570;-70
2022/06/26 06:28:27;;;;;;;2.57;2.37;;;21.30;99.90;;;;;;5135591;27;20490;-71
2022/06/26 06:30:54;;;;;;;3.40;3.20;;;21.20;99.90;;;;;;5135687;27;20840;-71
2022/06/26 06:33:21;;;;;;;4.00;3.70;;;21.00;99.90;;;;;;5135143;27;20464;-71
2022/06/26 06:35:51;;;;;;;4.53;4.13;;;20.90;99.90;;;;;;5135540;27;20791;-71
2022/06/26 06:38:19;;;;;;;4.43;4.13;;;20.90;99.90;;;;;;5135280;27;20443;-71
2022/06/26 06:40:46;;;;;;;5.00;4.60;;;20.90;99.90;;;;;;5135314;27;20449;-70
2022/06/26 06:43:13;;;;;;;4.40;4.10;;;21.00;99.90;;;;;;5134920;27;20462;-71
2022/06/26 06:45:41;;;;;;;4.90;4.30;;;21.10;99.90;;;;;;5135254;27;20563;-70
2022/06/26 06:48:09;;;;;;;4.77;4.37;;;21.30;99.90;;;;;;5135274;27;20534;-70
2022/06/26 06:50:36;;;;;;;4.20;4.00;;;21.40;99.90;;;;;;5135234;27;20442;-71
2022/06/26 06:53:03;;;;;;;4.10;3.80;;;21.50;99.90;;;;;;5134752;27;20584;-71
2022/06/26 06:55:30;;;;;;;4.50;4.20;;;21.70;99.90;;;;;;5135042;27;20525;-71
2022/06/26 06:57:57;;;;;;;5.23;3.87;;;21.70;99.90;;;;;;5135103;27;20441;-70
2022/06/26 07:00:24;;;;;;;8.23;3.57;;;21.80;99.90;;;;;;5135067;27;20474;-71
2022/06/26 07:02:52;;;;;;;3.77;3.57;;;22.00;99.90;;;;;;5134534;27;21046;-71
2022/06/26 07:05:20;;;;;;;4.27;3.97;;;22.40;99.90;;;;;;5134893;27;20574;-70
2022/06/26 07:07:47;;;;;;;3.53;3.37;;;22.60;99.90;;;;;;5134777;27;20449;-71
2022/06/26 07:10:13;;;;;;;3.87;3.57;;;22.70;99.90;;;;;;5134745;27;20529;-70
2022/06/26 07:12:41;;;;;;;4.00;3.70;;;22.80;99.90;;;;;;5134583;27;20896;-70
2022/06/26 07:15:08;;;;;;;3.30;3.10;;;22.90;99.90;;;;;;5134710;27;20534;-71
2022/06/26 07:17:35;;;;;;;4.40;4.10;;;23.00;99.90;;;;;;5134792;27;20440;-71
2022/06/26 07:20:04;;;;;;;3.80;3.50;;;22.90;99.90;;;;;;5134743;27;20476;-71
2022/06/26 07:22:31;;;;;;;3.97;3.67;;;23.00;99.90;;;;;;5134392;27;20542;-71
2022/06/26 07:24:58;;;;;;;3.60;3.40;;;23.10;99.90;;;;;;5134480;27;20521;-71
2022/06/26 07:27:25;;;;;;;4.63;3.67;;;23.10;99.90;;;;;;5134610;27;20566;-71
2022/06/26 07:29:51;;;;;;;3.53;3.33;;;23.10;99.90;;;;;;5134639;27;20522;-71
2022/06/26 07:32:18;;;;;;;3.30;3.10;;;23.00;99.90;;;;;;5134279;27;20444;-71
2022/06/26 07:34:45;;;;;;;3.30;3.10;;;22.90;99.90;;;;;;5134622;27;20440;-71
2022/06/26 07:37:14;;;;;;;3.13;2.93;;;23.00;99.90;;;;;;5134492;27;20533;-71
2022/06/26 07:39:40;;;;;;;3.10;2.90;;;23.00;99.90;;;;;;5134467;27;20523;-71
2022/06/26 07:42:07;;;;;;;3.40;2.97;;;23.00;99.90;;;;;;5134136;27;20995;-71
2022/06/26 07:44:34;;;;;;;3.40;3.20;;;22.90;99.90;;;;;;5134460;27;21037;-71
2022/06/26 07:47:01;;;;;;;3.23;2.93;;;23.00;99.90;;;;;;5134488;27;20565;-71
2022/06/26 07:49:28;;;;;;;3.83;3.63;;;23.00;99.90;;;;;;5134455;27;20527;-71
2022/06/26 07:51:55;;;;;;;3.33;3.13;;;23.10;99.90;;;;;;5134750;27;20523;-71
2022/06/26 07:54:23;;;;;;;2.97;2.67;;;23.40;99.90;;;;;;5134207;27;20981;-71
2022/06/26 07:56:50;;;;;;;2.50;2.40;;;24.30;99.60;;;;;;5134459;27;20856;-71
2022/06/26 07:59:17;;;;;;;3.20;3.00;;;25.20;99.90;;;;;;5134324;27;20999;-71
2022/06/26 08:01:44;;;;;;;2.60;2.50;;;25.70;97.70;;;;;;5134294;27;20520;-71
2022/06/26 08:04:11;;;;;;;2.93;2.70;;;25.90;94.70;;;;;;5133879;27;20462;-70
2022/06/26 08:06:38;;;;;;;2.63;2.53;;;25.90;94.60;;;;;;5133972;27;20565;-70
2022/06/26 08:09:06;;;;;;;2.77;2.63;;;25.90;93.90;;;;;;5134273;27;20470;-70
2022/06/26 08:11:35;;;;;;;2.90;2.70;;;25.60;94.40;;;;;;5134106;27;20450;-70
2022/06/26 08:14:02;;;;;;;2.47;2.37;;;25.40;94.80;;;;;;5134049;27;20893;-70
2022/06/26 08:16:29;;;;;;;2.90;2.80;;;25.30;94.60;;;;;;5134212;27;20513;-70
2022/06/26 08:18:56;;;;;;;2.50;2.33;;;24.90;94.50;;;;;;5134076;27;20450;-71
2022/06/26 08:24:07;;;;;;;2.50;2.30;;;24.50;95.30;;;;;;5137957;27;20490;-71
2022/06/26 08:26:35;;;;;;;2.90;2.70;;;24.50;95.50;;;;;;5137928;27;20559;-70
2022/06/26 08:29:02;;;;;;;2.37;2.27;;;24.60;95.80;;;;;;5137775;27;20438;-70
2022/06/26 08:31:29;;;;;;;2.40;2.20;;;24.90;95.20;;;;;;5138031;27;20524;-71
2022/06/26 08:33:56;;;;;;;6.87;6.27;;;25.30;95.30;;;;;;5137486;27;20545;-70
2022/06/26 08:36:23;;;;;;;2.73;2.63;;;25.70;94.70;;;;;;5137918;27;20855;-70
2022/06/26 08:38:50;;;;;;;2.23;2.13;;;25.70;94.10;;;;;;5137889;27;20477;-70
2022/06/26 08:41:20;;;;;;;2.67;2.47;;;25.60;94.10;;;;;;5137912;27;20525;-70
2022/06/26 08:43:49;;;;;;;2.17;2.07;;;25.40;95.00;;;;;;5137195;27;20466;-71
2022/06/26 08:46:19;;;;;;;2.33;2.23;;;25.90;93.70;;;;;;5137993;27;20560;-70
2022/06/26 08:48:51;;;;;;;2.30;2.20;;;25.70;93.40;;;;;;5137719;27;20859;-70
2022/06/26 08:51:18;;;;;;;2.47;2.27;;;25.50;93.30;;;;;;5137543;27;20975;-70
2022/06/26 08:53:46;;;;;;;2.47;2.37;;;26.10;92.80;;;;;;5137042;27;20907;-71
2022/06/26 08:56:13;;;;;;;2.60;2.50;;;26.80;91.50;;;;;;5137429;27;20474;-71
2022/06/26 08:58:40;;;;;;;2.30;2.20;;;27.30;90.30;;;;;;5137118;27;20525;-71
2022/06/26 09:01:08;;;;;;;2.53;2.43;;;27.80;90.70;;;;;;5137415;27;20525;-71
2022/06/26 09:03:35;;;;;;;2.30;2.20;;;28.70;86.30;;;;;;5137146;27;20493;-71
2022/06/26 09:06:02;;;;;;;1.90;1.80;;;29.10;80.50;;;;;;5137238;27;20473;-71
2022/06/26 09:08:30;;;;;;;2.10;2.00;;;29.40;79.50;;;;;;5137300;27;20531;-71
2022/06/26 09:10:59;;;;;;;2.43;2.17;;;30.00;76.40;;;;;;5137201;27;20525;-71
2022/06/26 09:13:37;;;;;;;2.10;2.00;;;31.20;73.20;;;;;;5136743;27;20462;-71
2022/06/26 09:16:05;;;;;;;2.20;2.00;;;32.50;68.00;;;;;;5137265;27;20525;-71
2022/06/26 09:18:36;;;;;;;2.00;1.90;;;33.20;61.30;;;;;;5136975;27;20952;-71
2022/06/26 09:21:04;;;;;;;2.20;1.90;;;33.30;59.60;;;;;;5137007;27;20449;-71
2022/06/26 09:23:32;;;;;;;2.43;2.33;;;34.20;57.50;;;;;;5136461;27;20454;-71
2022/06/26 09:25:59;;;;;;;2.10;2.00;;;34.50;55.10;;;;;;5136805;27;20588;-71
2022/06/26 09:28:26;;;;;;;2.23;2.13;;;34.50;53.70;;;;;;5136886;27;20445;-71
2022/06/26 09:30:55;;;;;;;1.90;1.83;;;34.50;53.80;;;;;;5136694;27;20875;-71
2022/06/26 09:33:24;;;;;;;1.83;1.80;;;34.60;54.00;;;;;;5135445;27;20902;-71
2022/06/26 09:35:53;;;;;;;2.50;2.30;;;35.20;51.60;;;;;;5136706;27;20521;-71
2022/06/26 09:38:22;;;;;;;1.97;1.87;;;35.80;50.60;;;;;;5136431;27;20525;-71
2022/06/26 09:40:50;;;;;;;2.40;2.30;;;35.80;49.50;;;;;;5136653;27;20533;-71
2022/06/26 09:43:28;;;;;;;2.10;2.00;;;34.90;49.70;;;;;;5136069;27;20971;-71
2022/06/26 09:45:56;;;;;;;2.20;2.10;;;35.00;50.60;;;;;;5136378;27;21003;-71
2022/06/26 09:48:24;;;;;;;1.90;1.80;;;36.10;51.80;;;;;;5136379;27;20537;-71
2022/06/26 09:50:53;;;;;;;2.10;2.00;;;36.80;46.80;;;;;;5136461;27;20445;-71
2022/06/26 09:53:21;;;;;;;1.70;1.63;;;36.50;47.10;;;;;;5136007;27;20561;-71
2022/06/26 09:55:50;;;;;;;2.30;2.20;;;36.30;47.30;;;;;;5136376;27;20521;-71
2022/06/26 09:58:18;;;;;;;2.17;2.07;;;37.00;47.70;;;;;;5136278;27;20442;-71
2022/06/26 10:06:25;;;;;;;2.13;2.03;;;36.90;46.20;;;;;;5135847;27;20529;-71
2022/06/26 10:06:29;;;;;;;2.00;1.90;;;33.70;50.90;;;;;;5136169;27;20604;-71
2022/06/26 10:08:57;;;;;;;2.10;2.00;;;33.20;51.50;;;;;;5136142;27;20863;-72
2022/06/26 10:11:27;;;;;;;3.87;3.67;;;33.10;53.10;;;;;;5136505;27;20470;-71
2022/06/26 10:13:57;;;;;;;2.03;1.93;;;33.60;52.60;;;;;;5135887;27;20454;-71
2022/06/26 10:16:51;;;;;;;2.33;2.23;;;34.30;50.50;;;;;;5136031;27;20431;-71
2022/06/26 10:19:23;;;;;;;2.13;2.03;;;34.00;51.90;;;;;;5135939;27;20514;-71
2022/06/26 10:21:53;;;;;;;2.50;2.40;;;34.30;51.70;;;;;;5135864;27;20520;-71
2022/06/26 10:24:19;;;;;;;2.10;2.00;;;34.00;50.60;;;;;;5135586;27;20541;-71
2022/06/26 10:26:55;;;;;;;2.33;2.23;;;33.20;52.40;;;;;;5135655;27;20473;-71
2022/06/26 10:29:33;;;;;;;1.77;1.77;;;32.80;54.60;;;;;;5135705;27;20526;-71
2022/06/26 10:32:00;;;;;;;2.00;1.90;;;32.70;53.80;;;;;;5135611;27;20453;-71
2022/06/26 10:34:27;;;;;;;2.50;2.30;;;32.10;54.50;;;;;;5135119;27;20458;-71
2022/06/26 10:37:01;;;;;;;2.37;2.27;;;32.10;56.00;;;;;;5135576;27;20525;-71
2022/06/26 10:39:46;;;;;;;2.33;2.17;;;31.70;56.10;;;;;;5135556;27;20473;-71
2022/06/26 10:45:07;;;;;;;2.27;2.17;;;31.20;56.40;;;;;;5135226;27;20413;-71
2022/06/26 10:47:46;;;;;;;2.23;2.13;;;30.30;59.00;;;;;;5135293;27;20509;-71
2022/06/26 10:50:41;;;;;;;2.37;2.27;;;29.40;62.40;;;;;;5135319;27;20531;-71
2022/06/26 10:53:21;;;;;;;2.00;1.90;;;28.90;64.70;;;;;;5098364;27;20476;-71
2022/06/26 10:55:51;;;;;;;1.97;1.87;;;29.00;63.90;;;;;;5135283;27;20435;-70
2022/06/26 10:58:24;;;;;;;2.13;2.03;;;28.70;62.80;;;;;;5135123;27;20432;-71
2022/06/26 11:00:53;;;;;;;2.03;1.93;;;28.50;65.70;;;;;;5135160;27;20491;-71
2022/06/26 11:03:20;;;;;;;2.37;2.27;;;28.60;66.00;;;;;;5134616;27;20887;-70
2022/06/26 11:05:54;;;;;;;2.30;2.20;;;28.80;65.40;;;;;;5134832;27;20468;-71
2022/06/26 11:08:30;;;;;;;2.20;2.10;;;29.10;64.90;;;;;;5134733;27;20569;-71
2022/06/26 11:11:00;;;;;;;2.47;2.37;;;29.10;65.50;;;;;;5134985;27;20528;-70
2022/06/26 11:13:27;;;;;;;2.30;2.20;;;28.50;66.80;;;;;;5134684;27;20462;-71
2022/06/26 11:15:54;;;;;;;2.40;2.30;;;28.30;68.10;;;;;;5134561;27;20447;-71
2022/06/26 11:18:21;;;;;;;2.27;2.17;;;27.80;68.90;;;;;;5134872;27;20521;-71
2022/06/26 11:20:50;;;;;;;2.63;2.43;;;27.60;70.60;;;;;;5134819;27;20534;-70
2022/06/26 11:23:23;;;;;;;2.73;2.50;;;27.20;70.30;;;;;;5134369;27;20974;-70
2022/06/26 11:25:54;;;;;;;2.00;1.90;;;26.80;73.10;;;;;;5134785;27;20533;-71
2022/06/26 11:28:21;;;;;;;2.30;2.20;;;26.80;75.10;;;;;;5134654;27;21058;-71
2022/06/26 11:30:49;;;;;;;2.30;2.20;;;26.90;71.90;;;;;;5134758;27;20434;-71
2022/06/26 11:33:24;;;;;;;2.10;2.00;;;27.20;72.00;;;;;;5134435;27;20458;-71
2022/06/26 11:35:52;;;;;;;2.10;2.00;;;27.30;72.00;;;;;;5134541;27;20442;-70
2022/06/26 11:38:19;;;;;;;2.20;2.10;;;27.30;71.20;;;;;;5134532;27;20909;-71
2022/06/26 11:40:47;;;;;;;2.40;2.30;;;27.30;72.30;;;;;;5134568;27;20525;-71
2022/06/26 11:43:18;;;;;;;2.53;2.33;;;27.30;74.70;;;;;;5134279;27;20541;-71
2022/06/26 11:45:45;;;;;;;2.30;2.20;;;27.10;74.70;;;;;;5134460;27;20928;-70
2022/06/26 11:48:16;;;;;;;1.93;1.83;;;27.10;74.90;;;;;;5134296;27;20560;-71
2022/06/26 11:50:44;;;;;;;2.07;1.97;;;27.00;76.00;;;;;;5134522;27;20442;-70
2022/06/26 11:53:11;;;;;;;2.47;2.37;;;26.90;76.80;;;;;;5133889;27;20480;-70
2022/06/26 11:55:46;;;;;;;2.20;2.10;;;27.10;74.90;;;;;;5136178;27;20805;-70
2022/06/26 11:58:13;;;;;;;2.70;2.60;;;27.20;76.00;;;;;;5138868;27;20440;-71
2022/06/26 12:00:41;;;;;;;2.03;1.93;;;27.70;75.70;;;;;;5139030;27;20471;-71
2022/06/26 12:03:11;;;;;;;2.57;2.40;;;27.80;72.00;;;;;;5138459;27;20577;-71
2022/06/26 12:05:41;;;;;;;1.93;1.83;;;28.00;72.50;;;;;;5139149;27;20434;-72
2022/06/26 12:08:15;;;;;;;2.30;2.20;;;28.20;72.40;;;;;;5138757;27;20565;-72
2022/06/26 12:10:43;;;;;;;3.20;3.00;;;28.30;70.90;;;;;;5138780;27;20468;-71
2022/06/26 12:13:21;;;;;;;2.30;2.20;;;28.40;72.40;;;;;;5138069;27;20550;-71
2022/06/26 12:15:50;;;;;;;2.30;2.20;;;28.60;69.00;;;;;;5138595;27;20446;-71
2022/06/26 12:18:17;;;;;;;1.97;1.87;;;28.50;70.10;;;;;;5138395;27;20536;-71
2022/06/26 12:20:49;;;;;;;2.53;2.33;;;28.40;69.30;;;;;;5138194;27;20926;-71
2022/06/26 12:23:15;;;;;;;2.43;2.33;;;28.40;71.30;;;;;;5138117;27;20547;-71
2022/06/26 12:25:45;;;;;;;2.37;2.17;;;28.20;70.30;;;;;;5138242;27;20522;-71
2022/06/26 12:28:21;;;;;;;2.10;2.00;;;28.20;70.50;;;;;;5138237;27;20820;-71
2022/06/26 12:30:50;;;;;;;1.90;1.80;;;27.90;69.00;;;;;;5138222;27;20525;-71
2022/06/26 12:33:17;;;;;;;2.10;2.00;;;27.80;70.20;;;;;;5138050;27;20462;-71
2022/06/26 12:35:43;;;;;;;2.00;1.90;;;27.60;69.10;;;;;;5138175;27;20502;-71
2022/06/26 12:38:10;;;;;;;1.93;1.83;;;27.50;69.80;;;;;;5138259;27;20498;-71
2022/06/26 12:40:37;;;;;;;2.20;2.10;;;27.60;70.50;;;;;;5137918;27;20951;-71
2022/06/26 12:43:04;;;;;;;2.17;2.03;;;27.90;71.00;;;;;;5137646;27;20553;-71
2022/06/26 12:45:31;;;;;;;2.60;2.40;;;28.20;67.00;;;;;;5137690;27;20538;-71
2022/06/26 12:48:00;;;;;;;2.10;2.00;;;28.30;67.50;;;;;;5137768;27;20564;-71
2022/06/26 12:50:27;;;;;;;2.20;2.10;;;28.40;69.30;;;;;;5137797;27;20512;-72
2022/06/26 12:52:54;;;;;;;1.87;1.77;;;28.60;70.00;;;;;;5137414;27;20563;-71
2022/06/26 12:55:21;;;;;;;2.20;2.10;;;28.70;69.40;;;;;;5137793;27;20605;-71
2022/06/26 12:57:48;;;;;;;2.10;2.00;;;28.70;68.60;;;;;;5137643;27;20527;-71
2022/06/26 13:00:15;;;;;;;2.40;2.30;;;28.60;67.50;;;;;;5137264;27;21008;-71
2022/06/26 13:02:42;;;;;;;2.00;1.90;;;28.40;69.80;;;;;;5137137;27;20492;-71
2022/06/26 13:05:10;;;;;;;2.40;2.30;;;28.50;70.00;;;;;;5137431;27;20522;-71
2022/06/26 13:07:37;;;;;;;2.40;2.20;;;28.40;70.00;;;;;;5136876;27;21007;-71